Time;durP1;ratioP1;P1;durP2;ratioP2;P2;SDS_P1;SDS_P2;PMS_P1;PMS_P2;Temp;Humidity;BMP_temperature;BMP_pressure;BME280_temperature;BME280_humidity;BME280_pressure;Samples;Min_cycle;Max_cycle;Signal;HPM_P1;HPM_P2
2021/11/14 00:00:00;;;;;;;115.72;56.72;;;179.30;2252.80;;;;;;5033228;28;20029;-64
2021/11/14 00:02:26;;;;;;;123.75;62.90;;;179.30;2252.80;;;;;;5033203;28;20029;-63
2021/11/14 00:04:52;;;;;;;165.85;86.00;;;179.40;2252.80;;;;;;5031966;28;20063;-66
2021/11/14 00:07:18;;;;;;;155.73;82.07;;;179.40;2252.80;;;;;;5043755;28;20150;-65
2021/11/14 00:09:45;;;;;;;171.35;89.53;;;179.40;2252.80;;;;;;5052927;28;20057;-64
2021/11/14 00:12:12;;;;;;;148.68;70.93;;;179.40;2252.80;;;;;;5052896;28;20037;-63
2021/11/14 00:14:38;;;;;;;138.15;66.25;;;179.40;2252.80;;;;;;5052934;28;20033;-65
2021/11/14 00:17:04;;;;;;;121.10;57.15;;;179.40;2252.80;;;;;;5052818;28;20074;-65
2021/11/14 00:19:29;;;;;;;118.55;56.80;;;179.50;2252.80;;;;;;5051835;28;20120;-64
2021/11/14 00:21:55;;;;;;;110.15;55.05;;;179.50;2252.80;;;;;;5053085;28;20025;-63
2021/11/14 00:24:21;;;;;;;110.47;53.60;;;179.50;2252.80;;;;;;5052562;28;20025;-64
2021/11/14 00:26:47;;;;;;;110.22;53.22;;;179.60;2252.80;;;;;;5052189;28;20020;-64
2021/11/14 00:29:12;;;;;;;112.43;54.42;;;179.60;2252.80;;;;;;5053096;28;20040;-64
2021/11/14 00:31:39;;;;;;;150.82;70.30;;;179.60;2252.80;;;;;;5054144;28;20056;-65
2021/11/14 00:34:05;;;;;;;171.90;79.70;;;179.60;2252.80;;;;;;5053920;28;20055;-65
2021/11/14 00:36:37;;;;;;;166.55;79.75;;;179.60;2252.80;;;;;;5053984;28;20378;-65
2021/11/14 00:39:07;;;;;;;144.70;69.75;;;179.60;2252.80;;;;;;5053823;28;20045;-65
2021/11/14 00:41:33;;;;;;;134.05;64.40;;;179.60;2252.80;;;;;;5053573;28;20100;-65
2021/11/14 00:43:59;;;;;;;129.23;58.92;;;179.70;2252.80;;;;;;5053841;28;20049;-64
2021/11/14 00:46:26;;;;;;;119.43;58.85;;;179.60;2252.80;;;;;;5053729;28;20028;-65
2021/11/14 00:48:53;;;;;;;117.47;58.00;;;179.60;2252.80;;;;;;5053994;28;20029;-65
2021/11/14 00:51:25;;;;;;;118.50;56.97;;;179.60;2252.80;;;;;;5053781;28;20017;-65
2021/11/14 00:53:52;;;;;;;112.38;55.63;;;179.60;2252.80;;;;;;5053709;28;20399;-64
2021/11/14 00:56:17;;;;;;;118.40;57.20;;;179.60;2252.80;;;;;;5053778;28;20029;-65
2021/11/14 00:58:43;;;;;;;120.65;59.83;;;179.60;2252.80;;;;;;5053830;28;20043;-64
2021/11/14 01:01:09;;;;;;;118.18;57.53;;;179.70;2252.80;;;;;;5053495;28;20044;-65
2021/11/14 01:03:35;;;;;;;123.80;60.53;;;179.70;2252.80;;;;;;5053814;28;20032;-64
2021/11/14 01:06:01;;;;;;;120.07;59.40;;;179.70;2252.80;;;;;;5053845;28;20048;-64
2021/11/14 01:08:28;;;;;;;134.20;64.65;;;179.70;2252.80;;;;;;5053407;28;20028;-64
2021/11/14 01:10:56;;;;;;;127.35;62.40;;;179.70;2252.80;;;;;;5053696;28;20437;-64
2021/11/14 01:13:22;;;;;;;125.28;62.75;;;179.70;2252.80;;;;;;5053285;28;20418;-64
2021/11/14 01:15:49;;;;;;;132.38;64.00;;;179.70;2252.80;;;;;;5053238;28;20032;-64
2021/11/14 01:18:17;;;;;;;112.45;58.95;;;179.70;2252.80;;;;;;5052966;28;20052;-63
2021/11/14 01:20:46;;;;;;;120.10;59.60;;;179.70;2252.80;;;;;;5053529;28;20083;-64
2021/11/14 01:23:12;;;;;;;127.40;62.38;;;179.70;2252.80;;;;;;5053517;28;20471;-65
2021/11/14 01:25:39;;;;;;;123.57;60.40;;;179.70;2252.80;;;;;;5053582;28;20029;-65
2021/11/14 01:28:05;;;;;;;129.98;63.17;;;179.70;2252.80;;;;;;5053335;28;20033;-64
2021/11/14 01:30:34;;;;;;;122.25;60.15;;;179.70;2252.80;;;;;;5054614;28;20048;-64
2021/11/14 01:33:02;;;;;;;118.10;59.63;;;179.70;2252.80;;;;;;5057525;28;20489;-64
2021/11/14 01:35:29;;;;;;;122.30;60.80;;;179.80;2252.80;;;;;;5057277;28;20025;-64
2021/11/14 01:37:56;;;;;;;119.57;60.83;;;179.70;2252.80;;;;;;5057425;28;20104;-64
2021/11/14 01:40:26;;;;;;;121.95;59.75;;;179.70;2252.80;;;;;;5057582;28;20035;-62
2021/11/14 01:42:53;;;;;;;119.40;57.88;;;179.80;2252.80;;;;;;5056938;28;20052;-65
2021/11/14 01:45:19;;;;;;;113.35;56.10;;;179.80;2252.80;;;;;;5057176;28;20029;-64
2021/11/14 01:47:46;;;;;;;117.38;57.13;;;179.80;2252.80;;;;;;5057309;28;20099;-65
2021/11/14 01:50:13;;;;;;;116.40;59.75;;;179.70;2252.80;;;;;;5057133;28;20033;-65
2021/11/14 01:52:41;;;;;;;117.57;56.90;;;179.70;2252.80;;;;;;5056878;28;20104;-65
2021/11/14 01:55:08;;;;;;;114.35;55.17;;;179.70;2252.80;;;;;;5057362;28;20021;-66
2021/11/14 01:57:34;;;;;;;110.60;54.97;;;179.60;2252.80;;;;;;5056666;28;20052;-64
2021/11/14 02:00:00;;;;;;;119.45;58.28;;;179.60;2252.80;;;;;;5057071;28;20112;-65
2021/11/14 02:02:26;;;;;;;117.90;57.88;;;179.60;2252.80;;;;;;5056869;28;20033;-65
2021/11/14 02:04:52;;;;;;;112.13;56.47;;;179.60;2252.80;;;;;;5055729;28;20025;-63
2021/11/14 02:07:18;;;;;;;111.50;56.08;;;179.60;2252.80;;;;;;5056136;28;20100;-65
2021/11/14 02:09:45;;;;;;;116.22;56.20;;;179.60;2252.80;;;;;;5056938;28;20029;-63
2021/11/14 02:12:11;;;;;;;110.55;55.05;;;179.60;2252.80;;;;;;5056783;28;20057;-64
2021/11/14 02:14:38;;;;;;;107.80;53.78;;;179.60;2252.80;;;;;;5056511;28;20497;-64
2021/11/14 02:17:04;;;;;;;112.80;55.60;;;179.50;2252.80;;;;;;5056761;28;20028;-64
2021/11/14 02:19:30;;;;;;;109.72;55.00;;;179.50;2252.80;;;;;;5056621;28;20040;-64
2021/11/14 02:21:56;;;;;;;113.40;55.67;;;179.50;2252.80;;;;;;5056453;28;20017;-64
2021/11/14 02:24:22;;;;;;;111.28;54.88;;;179.50;2252.80;;;;;;5056404;28;20490;-64
2021/11/14 02:26:48;;;;;;;110.97;54.88;;;179.50;2252.80;;;;;;5056261;28;20017;-64
2021/11/14 02:29:15;;;;;;;109.28;54.33;;;179.50;2252.80;;;;;;5056523;28;20053;-64
2021/11/14 02:31:43;;;;;;;102.75;53.13;;;179.50;2252.80;;;;;;5056262;28;20017;-64
2021/11/14 02:34:09;;;;;;;103.57;52.33;;;179.50;2252.80;;;;;;5056227;28;20036;-64
2021/11/14 02:36:35;;;;;;;101.68;51.47;;;179.60;2252.80;;;;;;5056112;28;20390;-62
2021/11/14 02:39:01;;;;;;;97.35;50.22;;;179.60;2252.80;;;;;;5055962;28;20048;-63
2021/11/14 02:41:27;;;;;;;98.43;50.88;;;179.60;2252.80;;;;;;5055907;28;20025;-64
2021/11/14 02:43:54;;;;;;;94.25;49.88;;;179.60;2252.80;;;;;;5054332;28;20041;-64
2021/11/14 02:46:21;;;;;;;95.80;50.10;;;179.60;2252.80;;;;;;5056128;28;20033;-63
2021/11/14 02:48:47;;;;;;;92.70;48.70;;;179.60;2252.80;;;;;;5056003;28;20152;-64
2021/11/14 02:51:17;;;;;;;92.88;48.65;;;179.60;2252.80;;;;;;5056045;28;20045;-63
2021/11/14 02:53:43;;;;;;;92.25;48.72;;;179.60;2252.80;;;;;;5054610;28;20048;-61
2021/11/14 02:56:10;;;;;;;90.95;48.35;;;179.60;2252.80;;;;;;5055712;28;20025;-61
2021/11/14 02:58:37;;;;;;;90.88;49.00;;;179.60;2252.80;;;;;;5055353;28;20490;-62
2021/11/14 03:01:16;;;;;;;90.57;48.78;;;179.60;2252.80;;;;;;5056050;28;20029;-61
2021/11/14 03:03:44;;;;;;;88.95;47.20;;;179.60;2252.80;;;;;;5055815;28;20037;-60
2021/11/14 03:06:10;;;;;;;89.93;47.25;;;179.60;2252.80;;;;;;5055797;28;20025;-60
2021/11/14 03:08:37;;;;;;;82.15;45.53;;;179.60;2252.80;;;;;;5055601;28;20060;-60
2021/11/14 03:11:04;;;;;;;81.85;45.95;;;179.70;2252.80;;;;;;5055444;28;20036;-61
2021/11/14 03:13:29;;;;;;;87.07;45.58;;;179.70;2252.80;;;;;;5055529;28;20875;-61
2021/11/14 03:16:02;;;;;;;86.22;46.10;;;179.60;2252.80;;;;;;5054237;28;20033;-63
2021/11/14 03:18:28;;;;;;;82.72;44.97;;;179.70;2252.80;;;;;;5055209;28;20045;-64
2021/11/14 03:20:56;;;;;;;81.70;45.38;;;179.70;2252.80;;;;;;5055293;28;20025;-64
2021/11/14 03:23:25;;;;;;;82.13;45.00;;;179.70;2252.80;;;;;;5055372;28;20029;-64
2021/11/14 03:25:52;;;;;;;75.22;43.13;;;179.70;2252.80;;;;;;5055345;28;20021;-64
2021/11/14 03:28:19;;;;;;;76.57;43.47;;;179.70;2252.80;;;;;;5055224;28;20029;-64
2021/11/14 03:30:46;;;;;;;73.60;42.67;;;179.70;2252.80;;;;;;5054197;28;20379;-64
2021/11/14 03:33:13;;;;;;;78.75;43.83;;;179.70;2252.80;;;;;;5056094;28;20021;-64
2021/11/14 03:35:53;;;;;;;77.07;42.17;;;179.70;2252.80;;;;;;5053904;28;20017;-64
2021/11/14 03:38:24;;;;;;;74.50;39.05;;;179.60;2252.80;;;;;;5055245;28;20102;-66
2021/11/14 03:40:51;;;;;;;69.55;39.47;;;179.70;2252.80;;;;;;5055167;28;20048;-64
2021/11/14 03:43:17;;;;;;;66.50;37.40;;;179.60;2252.80;;;;;;5054773;28;20040;-64
2021/11/14 03:45:43;;;;;;;63.13;36.20;;;179.60;2252.80;;;;;;5055306;28;20029;-64
2021/11/14 03:48:10;;;;;;;62.63;36.75;;;179.60;2252.80;;;;;;5055014;28;20044;-64
2021/11/14 03:50:36;;;;;;;63.63;35.72;;;179.60;2252.80;;;;;;5054823;28;20028;-64
2021/11/14 03:53:03;;;;;;;62.75;36.08;;;179.60;2252.80;;;;;;5054652;28;20029;-65
2021/11/14 03:55:29;;;;;;;61.72;36.05;;;179.60;2252.80;;;;;;5054845;28;20025;-62
2021/11/14 03:57:55;;;;;;;58.78;35.30;;;179.60;2252.80;;;;;;5054627;28;20048;-63
2021/11/14 04:00:25;;;;;;;60.42;35.70;;;179.60;2252.80;;;;;;5054285;28;20045;-63
2021/11/14 04:02:53;;;;;;;56.80;33.72;;;179.60;2252.80;;;;;;5054663;28;20056;-64
2021/11/14 04:05:20;;;;;;;57.65;34.78;;;179.50;2252.80;;;;;;5054800;28;20064;-63
2021/11/14 04:07:46;;;;;;;60.03;33.72;;;179.60;2252.80;;;;;;5054326;28;20074;-64
2021/11/14 04:10:13;;;;;;;58.20;34.22;;;179.60;2252.80;;;;;;5054595;28;20032;-65
2021/11/14 04:12:39;;;;;;;54.72;33.45;;;179.60;2252.80;;;;;;5054350;28;20021;-63
2021/11/14 04:15:07;;;;;;;59.55;34.60;;;179.60;2252.80;;;;;;5054318;28;20144;-65
2021/11/14 04:17:34;;;;;;;59.10;34.88;;;179.60;2252.80;;;;;;5054530;28;20029;-63
2021/11/14 04:20:00;;;;;;;59.58;34.47;;;179.60;2252.80;;;;;;5054396;28;20041;-65
2021/11/14 04:22:26;;;;;;;58.28;34.25;;;179.60;2252.80;;;;;;5054170;28;20493;-64
2021/11/14 04:24:52;;;;;;;59.80;34.55;;;179.50;2252.80;;;;;;5054024;28;20035;-63
2021/11/14 04:27:17;;;;;;;58.95;33.58;;;179.40;2252.80;;;;;;5054162;28;20025;-64
2021/11/14 04:29:43;;;;;;;58.45;34.28;;;179.40;2252.80;;;;;;5054155;28;20051;-64
2021/11/14 04:32:09;;;;;;;60.83;34.60;;;179.40;2252.80;;;;;;5053945;28;20033;-65
2021/11/14 04:34:35;;;;;;;57.60;33.53;;;179.40;2252.80;;;;;;5054643;28;20111;-64
2021/11/14 04:37:01;;;;;;;55.83;33.88;;;179.30;2252.80;;;;;;5054068;28;20436;-63
2021/11/14 04:39:26;;;;;;;59.45;33.95;;;179.30;2252.80;;;;;;5053879;28;20037;-64
2021/11/14 04:41:52;;;;;;;61.80;34.85;;;179.30;2252.80;;;;;;5054400;28;20108;-64
2021/11/14 04:44:18;;;;;;;56.60;33.38;;;179.20;2252.80;;;;;;5053803;28;20037;-64
2021/11/14 04:46:43;;;;;;;57.28;33.17;;;179.20;2252.80;;;;;;5054095;28;20379;-64
2021/11/14 04:49:09;;;;;;;59.60;32.58;;;179.20;2252.80;;;;;;5053551;28;20033;-63
2021/11/14 04:51:35;;;;;;;58.33;33.75;;;179.20;2252.80;;;;;;5053408;28;20032;-62
2021/11/14 04:54:01;;;;;;;55.42;33.85;;;179.20;2252.80;;;;;;5053868;28;20524;-63
2021/11/14 04:56:28;;;;;;;52.90;31.70;;;154.50;2252.80;;;;;;5053534;28;20517;-65
2021/11/14 04:58:54;;;;;;;56.27;33.20;;;154.50;2252.80;;;;;;5053499;28;20174;-63
2021/11/14 05:01:20;;;;;;;54.35;33.50;;;154.40;2252.80;;;;;;5053588;28;20481;-63
2021/11/14 05:03:46;;;;;;;55.25;33.20;;;154.50;2252.80;;;;;;5051791;28;20041;-61
2021/11/14 05:06:13;;;;;;;58.22;33.47;;;154.40;2252.80;;;;;;5053083;28;20020;-65
2021/11/14 05:08:39;;;;;;;57.70;33.80;;;154.40;2252.80;;;;;;5053812;28;20432;-63
2021/11/14 05:11:05;;;;;;;56.40;32.33;;;154.40;2252.80;;;;;;5053623;28;20021;-64
2021/11/14 05:13:31;;;;;;;57.65;33.58;;;154.40;2252.80;;;;;;5053152;28;20081;-65
2021/11/14 05:15:56;;;;;;;61.00;35.03;;;154.40;2252.80;;;;;;5053394;28;20429;-65
2021/11/14 05:18:22;;;;;;;59.15;34.55;;;154.40;2252.80;;;;;;5054104;28;20120;-64
2021/11/14 05:20:48;;;;;;;62.85;35.67;;;154.40;2252.80;;;;;;5053679;28;20115;-64
2021/11/14 05:23:16;;;;;;;61.17;34.78;;;154.40;2252.80;;;;;;5053395;28;20021;-61
2021/11/14 05:25:42;;;;;;;58.00;34.63;;;154.50;2252.80;;;;;;5053734;28;20029;-65
2021/11/14 05:28:08;;;;;;;58.83;34.58;;;154.50;2252.80;;;;;;5053381;28;20421;-61
2021/11/14 05:30:34;;;;;;;59.55;34.42;;;154.50;2252.80;;;;;;5052849;28;20079;-61
2021/11/14 05:33:00;;;;;;;61.88;36.10;;;154.50;2252.80;;;;;;5053217;28;20029;-61
2021/11/14 05:35:26;;;;;;;59.40;34.80;;;154.50;2252.80;;;;;;5053833;28;20367;-61
2021/11/14 05:37:52;;;;;;;60.05;35.05;;;154.50;2252.80;;;;;;5053418;28;20025;-60
2021/11/14 05:40:17;;;;;;;62.20;35.25;;;154.50;2252.80;;;;;;5053545;28;20021;-61
2021/11/14 05:42:43;;;;;;;60.38;36.42;;;154.50;2252.80;;;;;;5053143;28;20025;-61
2021/11/14 05:45:09;;;;;;;60.38;36.20;;;154.50;2252.80;;;;;;5053341;28;20071;-62
2021/11/14 05:47:35;;;;;;;64.22;37.20;;;179.20;2252.80;;;;;;5053274;28;20104;-61
2021/11/14 05:50:01;;;;;;;72.50;40.08;;;179.20;2252.80;;;;;;5053056;28;20025;-61
2021/11/14 05:52:27;;;;;;;139.32;57.15;;;179.20;2252.80;;;;;;5053540;28;20039;-65
2021/11/14 05:54:52;;;;;;;172.35;73.50;;;179.30;2252.80;;;;;;5052565;28;20093;-62
2021/11/14 05:57:18;;;;;;;161.82;73.88;;;179.30;2252.80;;;;;;5052688;28;20091;-63
2021/11/14 06:02:19;;;;;;;83.70;46.33;;;179.30;2252.80;;;;;;5053176;28;20367;-61
2021/11/14 06:05:19;;;;;;;78.57;44.22;;;179.30;2252.80;;;;;;5053715;28;20058;-62
2021/11/14 06:07:37;;;;;;;83.00;48.78;;;179.30;2252.80;;;;;;5051850;28;20090;-61
2021/11/14 06:10:04;;;;;;;80.68;46.53;;;179.30;2252.80;;;;;;5053118;28;20032;-62
2021/11/14 06:12:31;;;;;;;120.93;57.58;;;179.30;2252.80;;;;;;5052796;28;20038;-65
2021/11/14 06:14:56;;;;;;;197.93;86.88;;;179.40;2252.80;;;;;;5052762;28;20037;-63
2021/11/14 06:17:22;;;;;;;122.95;59.40;;;179.40;2252.80;;;;;;5053676;28;20032;-64
2021/11/14 06:19:49;;;;;;;131.00;58.60;;;179.50;2252.80;;;;;;5056878;28;20044;-64
2021/11/14 06:22:17;;;;;;;130.38;58.08;;;179.50;2252.80;;;;;;5056233;28;20029;-64
2021/11/14 06:24:43;;;;;;;233.80;86.22;;;179.40;2252.80;;;;;;5056642;28;20036;-64
2021/11/14 06:27:09;;;;;;;1115.35;383.02;;;179.50;2252.80;;;;;;5056394;28;20031;-64
2021/11/14 06:29:34;;;;;;;358.35;116.57;;;179.50;2252.80;;;;;;5056394;28;20112;-64
2021/11/14 06:32:00;;;;;;;358.73;126.20;;;179.60;2252.80;;;;;;5056169;28;20021;-65
2021/11/14 06:34:26;;;;;;;117.78;55.58;;;179.60;2252.80;;;;;;5056260;28;20029;-64
2021/11/14 06:36:52;;;;;;;104.40;54.00;;;179.60;2252.80;;;;;;5056402;28;20455;-65
2021/11/14 06:39:18;;;;;;;89.07;46.47;;;179.70;2252.80;;;;;;5055958;28;20467;-62
2021/11/14 06:41:45;;;;;;;81.70;45.00;;;179.70;2252.80;;;;;;5056102;28;20071;-65
2021/11/14 06:44:11;;;;;;;74.30;41.05;;;179.80;2252.80;;;;;;5056143;28;20032;-64
2021/11/14 06:46:36;;;;;;;67.65;37.60;;;180.00;2252.80;;;;;;5056176;28;20033;-65
2021/11/14 06:49:02;;;;;;;69.32;39.92;;;180.00;2252.80;;;;;;5056505;28;20219;-66
2021/11/14 06:51:28;;;;;;;64.68;38.72;;;204.90;2252.80;;;;;;5056071;28;20024;-65
2021/11/14 06:53:54;;;;;;;66.88;38.70;;;204.90;2252.80;;;;;;5056127;28;20079;-66
2021/11/14 06:56:21;;;;;;;63.25;37.03;;;204.80;2252.80;;;;;;5055836;28;20037;-67
2021/11/14 06:58:47;;;;;;;66.73;38.40;;;204.80;2252.80;;;;;;5055508;28;20394;-64
2021/11/14 07:01:13;;;;;;;61.53;36.03;;;205.00;2252.80;;;;;;5055947;28;20021;-66
2021/11/14 07:03:39;;;;;;;72.50;38.70;;;205.20;2252.80;;;;;;5055955;28;20389;-66
2021/11/14 07:06:05;;;;;;;61.83;36.45;;;205.10;2252.80;;;;;;5055732;28;20025;-62
2021/11/14 07:08:31;;;;;;;65.90;38.80;;;205.10;2252.80;;;;;;5055628;28;20056;-65
2021/11/14 07:10:57;;;;;;;63.72;37.63;;;205.10;2252.80;;;;;;5055934;28;20102;-60
2021/11/14 07:13:23;;;;;;;66.50;38.47;;;205.10;2252.80;;;;;;5054067;28;20040;-64
2021/11/14 07:15:48;;;;;;;64.95;37.53;;;205.20;2252.80;;;;;;5054101;28;20025;-65
2021/11/14 07:18:14;;;;;;;63.88;36.58;;;205.20;2252.80;;;;;;5054080;28;20044;-63
2021/11/14 07:20:40;;;;;;;59.17;35.83;;;205.20;2252.80;;;;;;5055377;28;20466;-64
2021/11/14 07:23:06;;;;;;;64.72;36.65;;;205.30;2252.80;;;;;;5055269;28;20039;-62
2021/11/14 07:25:33;;;;;;;63.22;36.47;;;205.50;2252.80;;;;;;5055515;28;20448;-64
2021/11/14 07:27:59;;;;;;;59.90;36.08;;;205.50;2252.80;;;;;;5055009;28;20033;-65
2021/11/14 07:30:25;;;;;;;58.72;35.45;;;205.60;2252.80;;;;;;5055655;28;20031;-61
2021/11/14 07:32:53;;;;;;;64.65;37.25;;;230.40;2252.80;;;;;;5055100;28;20079;-64
2021/11/14 07:35:21;;;;;;;58.17;34.47;;;230.60;2252.80;;;;;;5055056;28;20025;-64
2021/11/14 07:37:47;;;;;;;55.92;32.88;;;230.90;2252.80;;;;;;5053739;28;20021;-61
2021/11/14 07:40:15;;;;;;;53.33;33.30;;;256.10;2252.80;;;;;;5055289;28;20029;-64
2021/11/14 07:42:44;;;;;;;53.67;31.88;;;281.60;2278.40;;;;;;5054991;28;20044;-62
2021/11/14 07:45:11;;;;;;;49.72;32.53;;;282.40;2278.40;;;;;;5054776;28;20036;-62
2021/11/14 07:47:37;;;;;;;51.00;30.85;;;332.80;2329.60;;;;;;5054643;28;20036;-65
2021/11/14 07:50:04;;;;;;;45.45;30.52;;;358.70;2329.60;;;;;;5054647;28;20032;-62
2021/11/14 07:52:31;;;;;;;46.38;30.73;;;384.40;2099.20;;;;;;5054805;28;20067;-63
2021/11/14 07:54:57;;;;;;;44.53;30.77;;;410.10;1971.20;;;;;;5054771;28;20147;-62
2021/11/14 07:57:24;;;;;;;43.92;30.05;;;435.50;1792.00;;;;;;5054557;28;20048;-64
2021/11/14 07:59:50;;;;;;;44.38;29.00;;;436.10;1715.20;;;;;;5054195;28;20064;-62
2021/11/14 08:02:16;;;;;;;42.40;28.67;;;461.60;1638.40;;;;;;5054399;28;20078;-62
2021/11/14 08:04:42;;;;;;;41.38;28.88;;;487.00;1510.40;;;;;;5054408;28;20116;-62
2021/11/14 08:07:07;;;;;;;40.22;28.70;;;512.70;1408.00;;;;;;5054099;28;20028;-67
2021/11/14 08:09:33;;;;;;;36.75;27.33;;;538.20;1382.40;;;;;;5054838;28;20033;-69
2021/11/14 08:11:59;;;;;;;34.88;26.75;;;563.40;1331.20;;;;;;5054582;28;20521;-68
2021/11/14 08:14:25;;;;;;;33.70;25.77;;;588.90;1254.40;;;;;;5054471;28;20104;-68
2021/11/14 08:16:50;;;;;;;34.53;27.15;;;564.10;1254.40;;;;;;5054151;28;20023;-68
2021/11/14 08:19:16;;;;;;;35.17;26.20;;;589.20;1203.20;;;;;;5054184;28;20094;-64
2021/11/14 08:21:42;;;;;;;34.88;26.42;;;614.50;1126.40;;;;;;5054300;28;20029;-67
2021/11/14 08:24:08;;;;;;;34.28;26.38;;;615.00;1100.80;;;;;;5054379;28;20428;-67
2021/11/14 08:26:33;;;;;;;35.58;27.38;;;614.70;1100.80;;;;;;5053640;28;20033;-69
2021/11/14 08:28:59;;;;;;;35.30;27.20;;;614.70;1100.80;;;;;;5053337;28;20025;-68
2021/11/14 08:31:26;;;;;;;36.85;27.15;;;614.80;1075.20;;;;;;5053174;28;20124;-67
2021/11/14 08:33:52;;;;;;;38.13;26.67;;;614.80;1100.80;;;;;;5053231;28;20082;-66
2021/11/14 08:36:18;;;;;;;40.95;31.25;;;589.70;1100.80;;;;;;5053749;28;20036;-65
2021/11/14 08:38:45;;;;;;;41.72;29.30;;;589.70;1100.80;;;;;;5052821;28;20490;-62
2021/11/14 08:41:11;;;;;;;46.40;33.13;;;588.90;1152.00;;;;;;5053220;28;20047;-63
2021/11/14 08:43:39;;;;;;;45.13;32.53;;;588.90;1177.60;;;;;;5052844;28;20024;-61
2021/11/14 08:46:06;;;;;;;37.67;26.58;;;588.90;1177.60;;;;;;5053258;28;20029;-62
2021/11/14 08:48:32;;;;;;;38.08;26.75;;;564.10;1177.60;;;;;;5052113;28;20056;-66
2021/11/14 08:50:58;;;;;;;45.45;31.08;;;564.00;1203.20;;;;;;5051803;28;20021;-66
2021/11/14 08:53:24;;;;;;;35.25;25.98;;;588.80;1177.60;;;;;;5051715;28;20033;-66
2021/11/14 08:55:54;;;;;;;34.75;25.67;;;563.70;1228.80;;;;;;5052334;28;20031;-66
2021/11/14 08:58:21;;;;;;;34.15;25.48;;;564.00;1203.20;;;;;;5049392;28;20548;-67
2021/11/14 09:00:48;;;;;;;36.50;24.35;;;563.60;1228.80;;;;;;5051110;28;20106;-61
2021/11/14 09:03:14;;;;;;;33.45;24.85;;;538.00;1254.40;;;;;;5051984;28;20025;-62
2021/11/14 09:05:40;;;;;;;34.60;25.17;;;512.20;1305.60;;;;;;5052377;28;20032;-64
2021/11/14 09:08:06;;;;;;;33.80;23.88;;;512.50;1331.20;;;;;;5052756;28;20145;-60
2021/11/14 09:10:35;;;;;;;37.22;25.00;;;512.30;1305.60;;;;;;5052518;28;20171;-60
2021/11/14 09:13:01;;;;;;;32.95;24.05;;;512.90;1280.00;;;;;;5052617;28;20024;-61
2021/11/14 09:15:29;;;;;;;32.83;23.73;;;537.80;1305.60;;;;;;5051931;28;20108;-67
2021/11/14 09:18:00;;;;;;;32.30;24.35;;;563.50;1254.40;;;;;;5052423;28;20025;-68
2021/11/14 09:20:26;;;;;;;127.65;58.90;;;589.70;1152.00;;;;;;5052472;28;20033;-66
2021/11/14 09:22:52;;;;;;;42.38;27.45;;;640.90;1024.00;;;;;;5052504;28;20021;-66
2021/11/14 09:25:18;;;;;;;31.83;22.90;;;666.40;998.40;;;;;;5052596;28;20032;-66
2021/11/14 09:27:44;;;;;;;64.97;37.25;;;691.80;921.60;;;;;;5052194;28;20021;-67
2021/11/14 09:30:11;;;;;;;186.10;90.72;;;742.50;921.60;;;;;;5053464;28;20041;-69
2021/11/14 09:32:38;;;;;;;41.55;29.58;;;768.00;844.80;;;;;;5051953;28;20040;-65
2021/11/14 09:35:05;;;;;;;26.63;22.17;;;768.80;819.20;;;;;;5051600;28;20029;-65
2021/11/14 09:37:30;;;;;;;161.43;99.88;;;768.50;819.20;;;;;;5051626;28;20371;-63
2021/11/14 09:39:56;;;;;;;28.70;23.15;;;793.60;819.20;;;;;;5051377;28;20037;-63
2021/11/14 09:42:25;;;;;;;27.80;23.42;;;768.90;819.20;;;;;;5051295;28;20104;-66
2021/11/14 09:44:52;;;;;;;24.95;22.20;;;793.70;819.20;;;;;;5051051;28;20048;-62
2021/11/14 09:47:19;;;;;;;25.65;21.75;;;793.70;819.20;;;;;;5051409;28;20663;-68
2021/11/14 09:49:44;;;;;;;28.27;24.98;;;794.10;793.60;;;;;;5049782;28;20538;-68
2021/11/14 09:52:11;;;;;;;26.25;22.90;;;794.10;793.60;;;;;;5053777;28;20096;-64
2021/11/14 09:54:38;;;;;;;29.77;25.80;;;794.50;768.00;;;;;;5055342;28;20021;-63
2021/11/14 09:57:05;;;;;;;47.30;35.42;;;794.10;793.60;;;;;;5053535;28;20495;-67
2021/11/14 09:59:31;;;;;;;60.35;42.38;;;794.40;793.60;;;;;;5055155;28;20435;-64
2021/11/14 10:01:59;;;;;;;22.05;19.75;;;819.40;768.00;;;;;;5056238;28;20021;-64
2021/11/14 10:04:25;;;;;;;43.60;33.05;;;819.70;742.40;;;;;;5055318;28;20044;-65
2021/11/14 10:07:03;;;;;;;21.45;18.58;;;844.90;742.40;;;;;;5057194;28;20029;-67
2021/11/14 10:09:43;;;;;;;21.65;18.85;;;768.70;742.40;;;;;;5056802;28;20055;-70
2021/11/14 10:12:20;;;;;;;25.98;22.95;;;717.00;819.20;;;;;;5056609;28;20072;-67
2021/11/14 10:15:09;;;;;;;38.30;30.02;;;666.50;896.00;;;;;;5056645;28;20032;-67
2021/11/14 10:17:35;;;;;;;45.83;31.83;;;691.70;844.80;;;;;;5055897;28;20021;-67
2021/11/14 10:20:40;;;;;;;23.92;20.08;;;716.80;844.80;;;;;;5055419;28;20045;-61
2021/11/14 10:23:13;;;;;;;65.05;42.30;;;717.10;819.20;;;;;;5053567;28;20367;-62
2021/11/14 10:25:41;;;;;;;24.98;21.30;;;742.80;819.20;;;;;;5055726;28;20504;-65
2021/11/14 10:28:07;;;;;;;34.20;29.15;;;742.90;793.60;;;;;;5055895;28;20024;-61
2021/11/14 10:30:38;;;;;;;21.33;18.05;;;742.50;819.20;;;;;;5055332;28;20023;-59
2021/11/14 10:33:06;;;;;;;25.95;22.00;;;742.40;819.20;;;;;;5053848;28;20056;-59
2021/11/14 10:35:34;;;;;;;22.33;19.45;;;742.40;819.20;;;;;;5053155;28;20017;-62
2021/11/14 10:38:02;;;;;;;21.17;18.45;;;742.80;793.60;;;;;;5054398;28;20025;-64
2021/11/14 10:40:31;;;;;;;27.95;23.38;;;742.90;793.60;;;;;;5048515;28;20036;-62
2021/11/14 10:42:59;;;;;;;34.53;28.83;;;743.20;819.20;;;;;;5055616;28;20478;-65
2021/11/14 10:45:27;;;;;;;35.67;28.27;;;793.60;793.60;;;;;;5055460;28;20029;-73
2021/11/14 10:48:06;;;;;;;22.20;19.80;;;794.10;768.00;;;;;;5055496;28;20485;-64
2021/11/14 10:50:38;;;;;;;28.80;24.70;;;793.60;768.00;;;;;;5055752;28;20107;-67
2021/11/14 10:53:13;;;;;;;38.03;33.92;;;794.00;768.00;;;;;;5055977;28;20029;-71
2021/11/14 10:55:43;;;;;;;25.15;22.05;;;793.80;768.00;;;;;;5056045;28;20033;-66
2021/11/14 10:58:09;;;;;;;20.63;18.35;;;793.70;768.00;;;;;;5055902;28;20044;-71
2021/11/14 11:00:37;;;;;;;23.33;20.55;;;742.40;819.20;;;;;;5055721;28;20025;-70
2021/11/14 11:03:03;;;;;;;24.23;20.77;;;717.00;844.80;;;;;;5055294;28;20187;-71
2021/11/14 11:05:30;;;;;;;23.55;20.20;;;717.70;793.60;;;;;;5055777;28;20522;-67
2021/11/14 11:08:00;;;;;;;22.60;20.20;;;743.00;819.20;;;;;;5055970;28;20075;-73
2021/11/14 11:10:38;;;;;;;23.85;20.80;;;717.70;793.60;;;;;;5055685;28;20031;-74
2021/11/14 11:13:08;;;;;;;25.40;21.52;;;742.50;819.20;;;;;;5055664;28;20475;-71
2021/11/14 11:15:49;;;;;;;24.92;21.88;;;742.40;844.80;;;;;;5055766;28;20017;-73
2021/11/14 11:18:20;;;;;;;22.40;19.73;;;768.10;793.60;;;;;;5055549;28;20490;-71
2021/11/14 11:20:50;;;;;;;27.42;23.75;;;768.50;742.40;;;;;;5055719;28;20033;-72
2021/11/14 11:23:18;;;;;;;23.83;20.85;;;793.60;768.00;;;;;;5054028;28;20044;-69
2021/11/14 11:25:49;;;;;;;24.38;20.90;;;793.60;793.60;;;;;;5055374;28;20025;-71
2021/11/14 11:28:28;;;;;;;23.33;19.88;;;794.40;742.40;;;;;;5055667;28;20085;-73
2021/11/14 11:31:17;;;;;;;22.35;17.90;;;794.50;716.80;;;;;;5055498;28;20037;-71
2021/11/14 11:33:45;;;;;;;24.88;19.90;;;794.50;716.80;;;;;;5055315;28;20482;-70
2021/11/14 11:36:13;;;;;;;23.42;19.80;;;819.60;716.80;;;;;;5055697;28;20095;-64
2021/11/14 11:38:42;;;;;;;27.35;18.63;;;819.80;665.60;;;;;;5055489;28;20340;-69
2021/11/14 11:41:09;;;;;;;24.55;19.00;;;819.50;691.20;;;;;;5055071;28;20025;-68
2021/11/14 11:43:35;;;;;;;20.92;17.60;;;819.50;716.80;;;;;;5055221;28;20033;-62
2021/11/14 11:46:10;;;;;;;36.90;22.92;;;819.70;691.20;;;;;;5055242;28;20017;-61
2021/11/14 11:48:35;;;;;;;;;;;819.90;665.60;;;;;;5055785;28;20139;-74
2021/11/14 11:51:12;;;;;;;17.08;15.23;;;819.20;691.20;;;;;;5055157;28;19955;-60
2021/11/14 11:53:39;;;;;;;50.70;32.25;;;793.60;742.40;;;;;;5055004;28;20017;-60
2021/11/14 11:56:11;;;;;;;21.25;16.88;;;768.80;742.40;;;;;;5054757;28;20028;-70
2021/11/14 11:58:50;;;;;;;24.98;20.23;;;768.30;742.40;;;;;;5054765;28;20040;-68
2021/11/14 12:01:21;;;;;;;58.35;36.60;;;768.90;742.40;;;;;;5055235;28;20035;-74